This is the latest recevied weather packets stored in our database for station/object KN4AN. If no packets are shown the sender has not sent any weather packets the latest 10 day(s).
| Time | Temp. | Humidity | Pressure | Rain* | Wind** | Luminosity | Snow |
|---|---|---|---|---|---|---|---|
| 1788555625 | 36.67° C | 39% | 1013.8 hPa | 0 mm | - | 180 W/m² | - |
| 1788555320 | 37.78° C | 39% | 1013.5 hPa | 0 mm | - | 221 W/m² | - |
| 1788555016 | 37.22° C | 40% | 1013.5 hPa | 0 mm | - | 250 W/m² | - |
| 1788554712 | 36.67° C | 39% | 1013.6 hPa | 0 mm | - | 281 W/m² | - |
| 1788554408 | 37.22° C | 38% | 1013.5 hPa | 0 mm | - | 168 W/m² | - |
| 1788554104 | 37.78° C | 36% | 1013.4 hPa | 0 mm | - | 270 W/m² | - |
| 1788553800 | 37.78° C | 38% | 1013.4 hPa | 0 mm | - | 295 W/m² | - |
| 1788553496 | 38.33° C | 37% | 1013.4 hPa | 0 mm | - | 329 W/m² | - |
| 1788553192 | 37.78° C | 38% | 1013.4 hPa | 0 mm | - | 356 W/m² | - |
| 1788552892 | 37.78° C | 37% | 1013.5 hPa | 0 mm | - | 381 W/m² | - |
| 1788552588 | 37.78° C | 37% | 1013.2 hPa | 0 mm | - | 392 W/m² | - |
| 1788552286 | 37.78° C | 37% | 1013.3 hPa | 0 mm | - | 419 W/m² | - |
| 1788551981 | 38.33° C | 37% | 1013.6 hPa | 0 mm | - | 456 W/m² | - |
| 1788551679 | 38.33° C | 36% | 1013.7 hPa | 0 mm | - | 456 W/m² | - |
| 1788551378 | 38.33° C | 37% | 1013.8 hPa | 0 mm | - | 466 W/m² | - |
| 1788551073 | 37.78° C | 38% | 1013.9 hPa | 0 mm | - | 479 W/m² | - |
| 1788550768 | 37.22° C | 39% | 1014.1 hPa | 0 mm | - | 452 W/m² | - |
| 1788550464 | 37.22° C | 37% | 1014.1 hPa | 0 mm | - | 429 W/m² | - |
| 1788550159 | 36.67° C | 40% | 1014.1 hPa | 0 mm | - | 481 W/m² | - |
| 1788549854 | 36.11° C | 40% | 1014.1 hPa | 0 mm | - | 287 W/m² | - |
| 1788549551 | 36.67° C | 39% | 1014.3 hPa | 0 mm | - | 131 W/m² | - |
| 1788549246 | 37.22° C | 36% | 1014.1 hPa | 0 mm | - | 203 W/m² | - |
| 1788548943 | 37.78° C | 36% | 1014.3 hPa | 0 mm | - | 133 W/m² | - |
| 1788548638 | 39.44° C | 34% | 1014.4 hPa | 0 mm | - | 237 W/m² | - |
| 1788548335 | 38.89° C | 35% | 1014.3 hPa | 0 mm | - | 653 W/m² | - |
* Rain latest hour (hover to see other rain measurements)
** Current wind speed in m/s (hover to see current wind gust speed)